Time;durP1;ratioP1;P1;durP2;ratioP2;P2;SDS_P1;SDS_P2;PMS_P1;PMS_P2;Temp;Humidity;BMP_temperature;BMP_pressure;BME280_temperature;BME280_humidity;BME280_pressure;Samples;Min_cycle;Max_cycle;Signal;HPM_P1;HPM_P2
2022/07/04 00:01:19;;;;;;;1.23;1.13;;;;;204.60;224519.00;;;;4934379;28;20284;-67
2022/07/04 00:04:05;;;;;;;1.33;1.07;;;;;204.60;224519.00;;;;4929664;29;20728;-66
2022/07/04 00:06:52;;;;;;;1.27;1.17;;;;;204.60;224519.00;;;;4930248;28;20262;-68
2022/07/04 00:09:39;;;;;;;1.87;1.20;;;;;204.60;224519.00;;;;4929161;29;20253;-67
2022/07/04 00:12:27;;;;;;;1.30;1.20;;;;;204.60;224519.00;;;;4939862;28;20220;-68
2022/07/04 00:15:14;;;;;;;0.97;0.97;;;;;204.60;224519.00;;;;4944094;28;20229;-66
2022/07/04 00:18:01;;;;;;;1.37;1.27;;;;;204.60;224519.00;;;;4944811;28;20244;-69
2022/07/04 00:20:47;;;;;;;2.50;1.17;;;;;204.60;224519.00;;;;4934723;28;20318;-70
2022/07/04 00:23:33;;;;;;;2.03;1.37;;;;;204.60;224519.00;;;;4945675;28;20236;-69
2022/07/04 00:26:20;;;;;;;1.23;1.13;;;;;204.60;224519.00;;;;4946974;28;20243;-69
2022/07/04 00:29:07;;;;;;;1.43;1.20;;;;;204.60;224519.00;;;;4945730;28;20280;-68
2022/07/04 00:31:55;;;;;;;2.23;1.03;;;;;204.60;224519.00;;;;4942068;28;20363;-69
2022/07/04 00:34:41;;;;;;;1.83;1.20;;;;;204.60;224519.00;;;;4941943;28;20227;-68
2022/07/04 00:37:28;;;;;;;1.40;1.20;;;;;204.60;224519.00;;;;4944432;28;20227;-68
2022/07/04 00:40:14;;;;;;;1.40;1.17;;;;;204.60;224519.00;;;;4944009;28;20284;-68
2022/07/04 00:43:02;;;;;;;1.37;1.27;;;;;204.60;224519.00;;;;4947191;28;20589;-68
2022/07/04 00:45:49;;;;;;;1.13;1.03;;;;;204.60;224519.00;;;;4946659;28;20228;-69
2022/07/04 00:48:36;;;;;;;1.17;1.07;;;;;204.60;224519.00;;;;4945582;28;20811;-68
2022/07/04 00:51:23;;;;;;;1.30;1.20;;;;;204.60;224519.00;;;;4945836;28;20252;-68
2022/07/04 00:54:11;;;;;;;1.50;1.20;;;;;204.60;224519.00;;;;4943872;28;20255;-68
2022/07/04 00:56:59;;;;;;;1.43;1.23;;;;;204.60;224519.00;;;;4946174;28;20224;-68
2022/07/04 00:59:45;;;;;;;4.47;1.40;;;;;204.60;224519.00;;;;4937463;28;20237;-69
2022/07/04 01:02:33;;;;;;;1.73;1.30;;;;;204.60;224519.00;;;;4939391;28;20224;-68
2022/07/04 01:05:19;;;;;;;3.97;1.40;;;;;204.60;224519.00;;;;4941163;28;20235;-69
2022/07/04 01:08:06;;;;;;;1.30;1.20;;;;;204.60;224519.00;;;;4943760;28;20922;-68
2022/07/04 01:10:53;;;;;;;2.60;1.20;;;;;204.60;224519.00;;;;4936212;28;20238;-69
2022/07/04 01:13:41;;;;;;;1.40;1.20;;;;;204.60;224519.00;;;;4939062;28;20367;-70
2022/07/04 01:16:28;;;;;;;1.17;1.07;;;;;204.60;224519.00;;;;4945728;28;20236;-68
2022/07/04 01:19:16;;;;;;;1.70;1.20;;;;;204.60;224519.00;;;;4945584;28;20236;-68
2022/07/04 01:22:07;;;;;;;1.50;1.30;;;;;204.60;224519.00;;;;4941689;28;20302;-71
2022/07/04 01:24:54;;;;;;;1.30;1.20;;;;;204.60;224519.00;;;;4941133;28;20330;-68
2022/07/04 01:27:40;;;;;;;1.20;1.07;;;;;204.60;224519.00;;;;4942243;28;20244;-68
2022/07/04 01:30:27;;;;;;;1.77;1.23;;;;;204.60;224519.00;;;;4938327;28;20307;-69
2022/07/04 01:33:13;;;;;;;1.37;1.27;;;;;204.60;224519.00;;;;4946466;28;20263;-68
2022/07/04 01:36:00;;;;;;;2.27;1.27;;;;;204.60;224519.00;;;;4945853;28;20752;-68
2022/07/04 01:38:47;;;;;;;1.60;1.50;;;;;204.60;224519.00;;;;4942104;28;20396;-69
2022/07/04 01:41:35;;;;;;;1.30;1.20;;;;;204.60;224519.00;;;;4939078;28;20243;-68
2022/07/04 01:44:21;;;;;;;2.00;1.27;;;;;204.60;224519.00;;;;4945470;28;20255;-68
2022/07/04 01:47:07;;;;;;;1.50;1.40;;;;;204.60;224519.00;;;;4937788;28;20632;-70
2022/07/04 01:49:54;;;;;;;1.63;1.50;;;;;204.60;224519.00;;;;4947763;28;20240;-69
2022/07/04 01:52:41;;;;;;;4.00;1.37;;;;;204.60;224519.00;;;;4949386;28;20243;-67
2022/07/04 01:55:29;;;;;;;2.30;1.37;;;;;204.60;224519.00;;;;4945040;28;20614;-64
2022/07/04 01:58:16;;;;;;;1.60;1.50;;;;;204.60;224519.00;;;;4945803;28;20235;-68
2022/07/04 02:04:07;;;;;;;3.07;1.53;;;;;204.60;224519.00;;;;4945493;28;20247;-65
2022/07/04 02:06:53;;;;;;;1.70;1.60;;;;;204.60;224519.00;;;;4949863;28;20239;-67
2022/07/04 02:09:40;;;;;;;2.83;1.53;;;;;204.60;224519.00;;;;4947025;28;20240;-67
2022/07/04 02:15:33;;;;;;;1.47;1.37;;;;;204.60;224519.00;;;;4948495;28;20224;-67
2022/07/04 02:18:19;;;;;;;3.73;1.40;;;;;204.60;224519.00;;;;4948813;28;20648;-68
2022/07/04 02:21:06;;;;;;;1.47;1.37;;;;;204.60;224519.00;;;;4948522;28;20307;-68
2022/07/04 02:23:52;;;;;;;1.40;1.30;;;;;204.60;224519.00;;;;4949400;28;20251;-67
2022/07/04 02:26:38;;;;;;;1.87;1.40;;;;;204.60;224519.00;;;;4947936;28;20658;-67
2022/07/04 02:29:26;;;;;;;1.73;1.60;;;;;204.60;224519.00;;;;4948478;28;20251;-64
2022/07/04 02:32:12;;;;;;;2.80;1.60;;;;;204.60;224519.00;;;;4942250;28;20737;-67
2022/07/04 02:34:59;;;;;;;3.10;1.80;;;;;204.60;224519.00;;;;4944873;28;20232;-67
2022/07/04 02:37:45;;;;;;;3.30;1.67;;;;;204.60;224519.00;;;;4943560;28;20372;-67
2022/07/04 02:40:31;;;;;;;3.37;1.60;;;;;204.60;224519.00;;;;4947879;28;20236;-67
2022/07/04 02:43:18;;;;;;;2.33;1.90;;;;;204.60;224519.00;;;;4944083;28;20241;-67
2022/07/04 02:46:05;;;;;;;3.40;1.80;;;;;204.60;224519.00;;;;4947847;28;20236;-68
2022/07/04 02:48:52;;;;;;;3.00;1.80;;;;;204.60;224519.00;;;;4943392;28;20295;-68
2022/07/04 02:51:44;;;;;;;2.30;2.00;;;;;204.60;224519.00;;;;4941294;28;20271;-67
2022/07/04 02:54:30;;;;;;;2.47;1.87;;;;;204.60;224519.00;;;;4946616;28;20360;-68
2022/07/04 02:57:17;;;;;;;2.10;1.90;;;;;204.60;224519.00;;;;4947800;28;20268;-70
2022/07/04 03:00:04;;;;;;;2.10;1.90;;;;;204.60;224519.00;;;;4947023;28;20239;-68
2022/07/04 03:02:52;;;;;;;2.33;1.90;;;;;204.60;224519.00;;;;4945241;28;20363;-69
2022/07/04 03:05:38;;;;;;;2.77;1.83;;;;;204.60;224519.00;;;;4942100;28;20239;-68
2022/07/04 03:08:25;;;;;;;2.37;2.17;;;;;204.60;224519.00;;;;4947097;28;20299;-69
2022/07/04 03:11:11;;;;;;;2.33;2.13;;;;;204.60;224519.00;;;;4947140;28;20240;-67
2022/07/04 03:13:58;;;;;;;2.50;2.10;;;;;204.60;224519.00;;;;4943530;28;20595;-67
2022/07/04 03:16:44;;;;;;;2.00;1.70;;;;;204.60;224519.00;;;;4941883;28;20240;-69
2022/07/04 03:19:32;;;;;;;3.80;2.43;;;;;204.60;224519.00;;;;4947430;28;20612;-66
2022/07/04 03:22:18;;;;;;;3.40;2.30;;;;;204.60;224519.00;;;;4944747;28;20315;-68
2022/07/04 03:25:06;;;;;;;4.30;2.80;;;;;204.60;224519.00;;;;4944863;28;20361;-69
2022/07/04 03:27:52;;;;;;;3.33;2.20;;;;;204.60;224519.00;;;;4940897;28;20728;-67
2022/07/04 03:30:38;;;;;;;4.00;2.27;;;;;204.60;224519.00;;;;4947297;28;20227;-67
2022/07/04 03:33:25;;;;;;;1.90;1.70;;;;;204.60;224519.00;;;;4940847;28;20243;-68
2022/07/04 03:36:12;;;;;;;2.37;2.17;;;;;204.60;224519.00;;;;4940246;28;20248;-67
2022/07/04 03:38:59;;;;;;;2.27;1.93;;;;;204.60;224519.00;;;;4937266;28;20359;-67
2022/07/04 03:41:45;;;;;;;2.23;2.00;;;;;204.60;224519.00;;;;4941535;28;20227;-69
2022/07/04 03:44:31;;;;;;;2.20;1.83;;;;;204.60;224519.00;;;;4940406;28;20233;-67
2022/07/04 03:47:17;;;;;;;2.20;1.97;;;;;204.60;224519.00;;;;4941831;28;20726;-68
2022/07/04 03:50:04;;;;;;;2.47;2.10;;;;;204.60;224519.00;;;;4947327;28;20240;-67
2022/07/04 03:52:52;;;;;;;2.17;1.97;;;;;204.60;224519.00;;;;4946185;28;20256;-66
2022/07/04 03:55:38;;;;;;;3.30;2.13;;;;;204.60;224519.00;;;;4943508;28;20223;-68
2022/07/04 03:58:25;;;;;;;2.57;1.60;;;;;204.60;224519.00;;;;4944801;28;20315;-69
2022/07/04 04:01:11;;;;;;;4.20;2.10;;;;;204.60;224519.00;;;;4945158;28;20336;-67
2022/07/04 04:07:02;;;;;;;2.50;2.07;;;;;204.60;224519.00;;;;4938355;28;20227;-68
2022/07/04 04:09:49;;;;;;;2.27;2.07;;;;;204.60;224519.00;;;;4939744;28;20585;-65
2022/07/04 04:12:36;;;;;;;3.13;2.30;;;;;204.60;224519.00;;;;4946454;28;20239;-71
2022/07/04 04:15:22;;;;;;;2.20;1.90;;;;;204.60;224519.00;;;;4946280;28;20376;-68
2022/07/04 04:18:09;;;;;;;2.90;2.17;;;;;204.60;224519.00;;;;4943054;28;20235;-67
2022/07/04 04:20:55;;;;;;;2.57;2.10;;;;;204.60;224519.00;;;;4940484;28;20231;-68
2022/07/04 04:23:41;;;;;;;4.33;2.33;;;;;204.60;224519.00;;;;4946302;28;20231;-64
2022/07/04 04:26:29;;;;;;;2.90;2.37;;;;;204.60;224519.00;;;;4944437;28;20298;-69
2022/07/04 04:29:15;;;;;;;3.03;2.43;;;;;204.60;224519.00;;;;4944949;28;20327;-69
2022/07/04 04:32:02;;;;;;;2.50;2.00;;;;;204.60;224519.00;;;;4938537;28;20773;-68
2022/07/04 04:34:48;;;;;;;2.43;2.10;;;;;204.60;224519.00;;;;4945076;28;20250;-68
2022/07/04 04:37:35;;;;;;;4.63;2.07;;;;;204.60;224519.00;;;;4939547;28;20244;-67
2022/07/04 04:40:21;;;;;;;2.40;1.87;;;;;204.60;224519.00;;;;4939721;28;20229;-68
2022/07/04 04:43:09;;;;;;;2.77;2.20;;;;;204.60;224519.00;;;;4941417;28;20232;-68
2022/07/04 04:45:55;;;;;;;3.53;2.07;;;;;204.60;224519.00;;;;4940673;28;20228;-68
2022/07/04 04:48:42;;;;;;;2.73;2.23;;;;;204.60;224519.00;;;;4942224;28;20872;-68
2022/07/04 04:51:28;;;;;;;2.77;2.13;;;;;204.60;224519.00;;;;4946426;28;20236;-67
2022/07/04 04:54:14;;;;;;;3.80;2.50;;;;;204.60;224519.00;;;;4944351;28;20244;-67
2022/07/04 04:57:01;;;;;;;3.93;2.80;;;;;204.60;224519.00;;;;4946553;28;20608;-67
2022/07/04 04:59:48;;;;;;;4.47;2.37;;;;;204.60;224519.00;;;;4937751;28;20323;-67
2022/07/04 05:02:40;;;;;;;3.27;2.47;;;;;204.60;224519.00;;;;4946780;28;20221;-69
2022/07/04 05:05:27;;;;;;;3.53;2.40;;;;;204.60;224519.00;;;;4945692;28;20303;-67
2022/07/04 05:08:13;;;;;;;2.80;2.33;;;;;204.60;224519.00;;;;4942360;28;20236;-67
2022/07/04 05:11:00;;;;;;;3.97;2.43;;;;;204.60;224519.00;;;;4946210;28;20291;-67
2022/07/04 05:13:46;;;;;;;5.07;2.93;;;;;204.60;224519.00;;;;4945843;28;20235;-66
2022/07/04 05:16:34;;;;;;;5.90;3.90;;;;;204.60;224519.00;;;;4945178;28;20251;-67
2022/07/04 05:19:20;;;;;;;6.47;3.83;;;;;204.60;224519.00;;;;4946965;28;20239;-67
2022/07/04 05:22:06;;;;;;;9.63;3.90;;;;;204.60;224519.00;;;;4946512;28;20236;-69
2022/07/04 05:24:52;;;;;;;6.60;4.57;;;;;204.60;224519.00;;;;4945807;28;20226;-69
2022/07/04 05:27:40;;;;;;;7.93;4.40;;;;;204.60;224519.00;;;;4949962;28;20228;-68
2022/07/04 05:30:26;;;;;;;9.20;4.50;;;;;204.60;224519.00;;;;4935478;28;20232;-69
2022/07/04 05:33:14;;;;;;;4.70;3.50;;;;;204.60;224519.00;;;;4938205;28;20248;-68
2022/07/04 05:36:00;;;;;;;5.80;4.23;;;;;204.60;224519.00;;;;4945141;28;20229;-68
2022/07/04 05:38:46;;;;;;;6.47;4.00;;;;;204.60;224519.00;;;;4949443;28;20256;-68
2022/07/04 05:41:32;;;;;;;5.67;3.83;;;;;204.60;224519.00;;;;4948604;28;20721;-68
2022/07/04 05:44:19;;;;;;;6.50;3.90;;;;;204.60;224519.00;;;;4946167;28;20228;-69
2022/07/04 05:47:05;;;;;;;8.67;4.67;;;;;204.60;224519.00;;;;4942059;28;20245;-67
2022/07/04 05:49:53;;;;;;;7.73;4.00;;;;;204.60;224519.00;;;;4947859;28;20230;-67
2022/07/04 05:52:39;;;;;;;9.10;4.40;;;;;204.60;224519.00;;;;4940928;28;20364;-68
2022/07/04 05:55:26;;;;;;;7.63;4.53;;;;;204.60;224519.00;;;;4935828;29;20260;-66
2022/07/04 05:58:13;;;;;;;9.03;4.80;;;;;204.60;224519.00;;;;4944893;28;20242;-66
2022/07/04 06:00:59;;;;;;;7.17;4.73;;;;;204.60;224519.00;;;;4937520;28;20943;-68
2022/07/04 06:03:47;;;;;;;7.93;4.37;;;;;204.60;224519.00;;;;4938128;28;20358;-67
2022/07/04 06:06:34;;;;;;;7.00;4.50;;;;;204.60;224519.00;;;;4932859;28;20882;-67
2022/07/04 06:09:21;;;;;;;7.43;4.70;;;;;204.60;224519.00;;;;4945990;28;20234;-67
2022/07/04 06:12:07;;;;;;;7.60;5.07;;;;;204.60;224519.00;;;;4948089;28;20240;-67
2022/07/04 06:14:53;;;;;;;11.17;5.00;;;;;204.60;224519.00;;;;4948906;28;20239;-67
2022/07/04 06:17:39;;;;;;;9.13;5.63;;;;;204.60;224519.00;;;;4947845;28;20240;-69
2022/07/04 06:20:26;;;;;;;6.80;4.70;;;;;204.60;224519.00;;;;4944493;28;20803;-68
2022/07/04 06:23:13;;;;;;;11.93;4.57;;;;;204.60;224519.00;;;;4948254;28;20244;-67
2022/07/04 06:25:59;;;;;;;5.90;3.93;;;;;204.60;224519.00;;;;4941748;28;20259;-67
2022/07/04 06:28:46;;;;;;;6.73;4.63;;;;;204.60;224519.00;;;;4942931;28;20247;-67
2022/07/04 06:31:33;;;;;;;8.10;4.20;;;;;204.60;224519.00;;;;4947288;28;20240;-68
2022/07/04 06:37:24;;;;;;;5.30;3.53;;;;;204.60;224519.00;;;;4945796;28;20776;-66
2022/07/04 06:40:12;;;;;;;8.27;3.60;;;;;204.60;224519.00;;;;4946555;28;20241;-68
2022/07/04 06:42:58;;;;;;;6.23;2.93;;;;;204.60;224519.00;;;;4947982;28;20228;-67
2022/07/04 06:45:44;;;;;;;6.80;3.10;;;;;204.60;224519.00;;;;4948109;28;20441;-68
2022/07/04 06:48:31;;;;;;;6.33;2.13;;;;;204.60;224519.00;;;;4947325;28;20236;-67
2022/07/04 06:51:17;;;;;;;3.93;1.87;;;;;204.60;224519.00;;;;4947522;28;20237;-68
2022/07/04 06:54:03;;;;;;;5.60;2.23;;;;;204.60;224519.00;;;;4944137;28;20251;-67
2022/07/04 06:56:51;;;;;;;3.47;2.13;;;;;204.60;224519.00;;;;4948803;28;20228;-65
2022/07/04 06:59:58;;;;;;;4.63;2.00;;;;;204.60;224519.00;;;;4939230;28;20303;-69
2022/07/04 07:02:44;;;;;;;2.50;2.27;;;;;204.60;224519.00;;;;4942771;28;20220;-70
2022/07/04 07:05:31;;;;;;;3.43;2.00;;;;;204.60;224519.00;;;;4940810;28;20706;-71
2022/07/04 07:08:37;;;;;;;4.27;1.90;;;;;204.60;224519.00;;;;4939667;28;20227;-70
2022/07/04 07:11:23;;;;;;;4.03;2.07;;;;;204.60;224519.00;;;;4948117;28;20312;-68
2022/07/04 07:14:11;;;;;;;4.60;2.60;;;;;204.60;224519.00;;;;4942419;28;20312;-70
2022/07/04 07:16:58;;;;;;;3.87;2.20;;;;;204.60;224519.00;;;;4942606;28;20227;-69
2022/07/04 07:19:44;;;;;;;3.17;2.17;;;;;204.60;224519.00;;;;4947737;28;20368;-71
2022/07/04 07:22:31;;;;;;;4.63;2.27;;;;;204.60;224519.00;;;;4947066;28;20355;-69
2022/07/04 07:25:18;;;;;;;3.63;2.00;;;;;204.60;224519.00;;;;4942008;28;20229;-67
2022/07/04 07:28:04;;;;;;;5.63;2.10;;;;;204.60;224519.00;;;;4940020;28;20232;-69
2022/07/04 07:30:52;;;;;;;4.13;2.67;;;;;204.60;224519.00;;;;4945757;28;20235;-69
2022/07/04 07:33:38;;;;;;;3.47;2.50;;;;;204.60;224519.00;;;;4947012;28;20240;-69
2022/07/04 07:36:25;;;;;;;2.63;2.40;;;;;204.60;224519.00;;;;4945234;28;20608;-70
2022/07/04 07:39:11;;;;;;;3.63;2.30;;;;;204.60;224519.00;;;;4947551;28;20705;-67
2022/07/04 07:41:57;;;;;;;2.30;2.10;;;;;204.60;224519.00;;;;4948051;28;20249;-71
2022/07/04 07:44:45;;;;;;;3.27;2.07;;;;;204.60;224519.00;;;;4946704;28;20244;-70
2022/07/04 07:47:33;;;;;;;2.93;1.80;;;;;204.60;224519.00;;;;4944769;28;20235;-70
2022/07/04 07:50:20;;;;;;;4.80;1.97;;;;;204.60;224519.00;;;;4947650;28;20604;-70
2022/07/04 07:53:07;;;;;;;1.80;1.30;;;;;204.60;224519.00;;;;4942110;28;20243;-70
2022/07/04 07:55:53;;;;;;;4.00;1.80;;;;;204.60;224519.00;;;;4943723;28;20236;-70
2022/07/04 07:58:39;;;;;;;6.10;3.30;;;;;204.60;224519.00;;;;4945706;28;20228;-72
2022/07/04 08:01:26;;;;;;;6.53;3.63;;;;;204.60;224519.00;;;;4943754;28;20232;-71
2022/07/04 08:07:17;;;;;;;2.33;1.73;;;;;204.60;224519.00;;;;4935761;28;20248;-70
2022/07/04 08:10:09;;;;;;;1.50;1.30;;;;;204.60;224519.00;;;;4939963;28;20356;-70
2022/07/04 08:12:58;;;;;;;1.90;1.30;;;;;204.60;224519.00;;;;4943748;28;20244;-71
2022/07/04 08:15:44;;;;;;;1.43;1.30;;;;;204.60;224519.00;;;;4944435;28;20720;-71
2022/07/04 08:18:31;;;;;;;1.73;1.57;;;;;204.60;224519.00;;;;4943913;28;20232;-70
2022/07/04 08:21:19;;;;;;;4.13;1.20;;;;;204.60;224519.00;;;;4944382;28;20228;-71
2022/07/04 08:24:06;;;;;;;3.30;1.20;;;;;204.60;224519.00;;;;4935761;28;20244;-72
2022/07/04 08:27:05;;;;;;;3.27;1.10;;;;;204.60;224519.00;;;;4935931;28;22074;-71
2022/07/04 08:29:51;;;;;;;3.57;1.17;;;;;204.60;224519.00;;;;4940990;28;20224;-71
2022/07/04 08:32:38;;;;;;;1.00;1.00;;;;;204.60;224519.00;;;;4944649;28;20235;-70
2022/07/04 08:35:24;;;;;;;1.20;1.10;;;;;204.60;224519.00;;;;4941819;28;20404;-72
2022/07/04 08:38:12;;;;;;;1.17;0.90;;;;;204.60;224519.00;;;;4944813;28;20244;-71
2022/07/04 08:41:02;;;;;;;0.93;0.93;;;;;204.60;224519.00;;;;4946401;28;20223;-72
2022/07/04 08:43:50;;;;;;;2.00;1.20;;;;;204.60;224519.00;;;;4942414;28;20232;-68
2022/07/04 08:46:37;;;;;;;2.40;0.90;;;;;204.60;224519.00;;;;4944076;28;20369;-71
2022/07/04 08:49:28;;;;;;;1.53;1.00;;;;;204.60;224519.00;;;;4941634;28;20224;-70
2022/07/04 08:52:24;;;;;;;4.37;1.40;;;;;204.60;224519.00;;;;4941716;28;20596;-71
2022/07/04 08:58:26;;;;;;;1.20;1.10;;;;;204.60;224519.00;;;;4941276;28;20267;-72
2022/07/04 09:01:14;;;;;;;1.30;1.10;;;;;204.60;224519.00;;;;4938426;28;20367;-71
2022/07/04 09:04:03;;;;;;;3.00;1.17;;;;;204.60;224519.00;;;;4933483;28;20221;-72
2022/07/04 09:06:50;;;;;;;1.13;0.87;;;;;204.60;224519.00;;;;4943428;28;20238;-69
2022/07/04 09:09:39;;;;;;;2.50;1.10;;;;;204.60;224519.00;;;;4942992;28;20789;-71
2022/07/04 09:12:28;;;;;;;1.10;1.10;;;;;204.60;224519.00;;;;4942398;28;20229;-70
2022/07/04 09:15:28;;;;;;;1.63;0.80;;;;;204.60;224519.00;;;;4941725;28;20252;-71
2022/07/04 09:18:22;;;;;;;1.33;1.00;;;;;204.60;224519.00;;;;4939437;28;20314;-70
2022/07/04 09:21:10;;;;;;;1.37;1.07;;;;;204.60;224519.00;;;;4938543;28;20719;-68
2022/07/04 09:23:57;;;;;;;2.27;1.10;;;;;204.60;224519.00;;;;4938202;28;20265;-69
2022/07/04 09:26:46;;;;;;;7.77;4.03;;;;;204.60;224519.00;;;;4944074;28;20234;-71
2022/07/04 09:29:34;;;;;;;2.83;1.20;;;;;204.60;224519.00;;;;4937680;28;20716;-74
2022/07/04 09:32:25;;;;;;;2.97;1.20;;;;;204.60;224519.00;;;;4941198;28;20234;-69
2022/07/04 09:35:13;;;;;;;2.23;1.40;;;;;204.60;224519.00;;;;4946441;28;20254;-68
2022/07/04 09:38:01;;;;;;;1.53;1.00;;;;;204.60;224519.00;;;;4945769;28;20227;-68
2022/07/04 09:44:02;;;;;;;1.57;0.90;;;;;204.60;224519.00;;;;4944922;28;20247;-68
2022/07/04 09:46:50;;;;;;;1.47;0.90;;;;;204.60;224519.00;;;;4938990;28;20244;-67
2022/07/04 09:49:36;;;;;;;1.23;1.00;;;;;204.60;224519.00;;;;4946112;28;20620;-68
2022/07/04 09:52:23;;;;;;;1.67;1.00;;;;;204.60;224519.00;;;;4941449;28;20612;-63
2022/07/04 09:55:09;;;;;;;0.90;0.90;;;;;204.60;224519.00;;;;4934688;28;20596;-67
2022/07/04 09:57:56;;;;;;;1.90;0.87;;;;;204.60;224519.00;;;;4943731;28;20311;-67
2022/07/04 10:00:45;;;;;;;1.47;1.00;;;;;204.60;224519.00;;;;4945643;28;20236;-69
2022/07/04 10:03:34;;;;;;;1.20;1.10;;;;;204.60;224519.00;;;;4944458;28;20225;-67
2022/07/04 10:06:25;;;;;;;1.87;1.17;;;;;204.60;224519.00;;;;4941438;28;20330;-66
2022/07/04 10:09:13;;;;;;;1.03;0.93;;;;;204.60;224519.00;;;;4937495;28;20227;-67
2022/07/04 10:11:59;;;;;;;1.10;1.00;;;;;204.60;224519.00;;;;4948214;28;20253;-67
2022/07/04 10:14:45;;;;;;;1.27;0.83;;;;;204.60;224519.00;;;;4946455;28;20235;-68
2022/07/04 10:17:32;;;;;;;1.53;0.80;;;;;204.60;224519.00;;;;4948954;28;20240;-69
2022/07/04 10:20:20;;;;;;;1.60;0.90;;;;;204.60;224519.00;;;;4938744;28;20328;-66
2022/07/04 10:23:07;;;;;;;0.83;0.83;;;;;204.60;224519.00;;;;4940366;28;20954;-67
2022/07/04 10:25:54;;;;;;;0.80;0.80;;;;;204.60;224519.00;;;;4947377;28;20296;-67
2022/07/04 10:28:41;;;;;;;0.80;0.80;;;;;204.60;224519.00;;;;4941894;28;20988;-66
2022/07/04 10:31:35;;;;;;;4.93;1.00;;;;;204.60;224519.00;;;;4941328;28;20594;-67
2022/07/04 10:34:22;;;;;;;1.47;1.00;;;;;204.60;224519.00;;;;4942744;28;20360;-67
2022/07/04 10:37:10;;;;;;;33.77;2.57;;;;;204.60;224519.00;;;;4947068;28;20601;-64
2022/07/04 10:39:56;;;;;;;1.30;0.93;;;;;204.60;224519.00;;;;4941464;28;20233;-65
2022/07/04 10:42:42;;;;;;;1.60;1.00;;;;;204.60;224519.00;;;;4941189;28;20845;-66
2022/07/04 10:45:33;;;;;;;1.37;1.00;;;;;204.60;224519.00;;;;4942215;28;20220;-67
2022/07/04 10:48:21;;;;;;;3.33;1.00;;;;;204.60;224519.00;;;;4936930;28;20312;-68
2022/07/04 10:51:08;;;;;;;3.87;1.00;;;;;204.60;224519.00;;;;4942776;28;20252;-66
2022/07/04 10:54:01;;;;;;;4.30;1.10;;;;;204.60;224519.00;;;;4942576;28;20776;-66
2022/07/04 10:56:53;;;;;;;2.03;1.40;;;;;204.60;224519.00;;;;4942098;28;20239;-67
2022/07/04 10:59:40;;;;;;;7.70;3.90;;;;;204.60;224519.00;;;;4941230;28;20264;-66
2022/07/04 11:02:29;;;;;;;2.90;1.40;;;;;204.60;224519.00;;;;4938081;28;20237;-66
2022/07/04 11:05:15;;;;;;;2.30;1.13;;;;;204.60;224519.00;;;;4938733;28;20295;-64
2022/07/04 11:08:06;;;;;;;3.23;1.30;;;;;204.60;224519.00;;;;4942497;28;20256;-64
2022/07/04 11:11:05;;;;;;;3.33;1.07;;;;;204.60;224519.00;;;;4933999;28;20225;-65
2022/07/04 11:14:24;;;;;;;2.33;1.47;;;;;204.60;224519.00;;;;4939231;28;20237;-64
2022/07/04 11:17:13;;;;;;;1.53;1.00;;;;;204.60;224519.00;;;;4939448;28;20244;-66
2022/07/04 11:20:06;;;;;;;2.30;1.10;;;;;204.60;224519.00;;;;4938125;28;20236;-65
2022/07/04 11:22:53;;;;;;;1.67;0.97;;;;;204.60;224519.00;;;;4937384;28;20260;-65
2022/07/04 11:25:41;;;;;;;5.33;1.40;;;;;204.60;224519.00;;;;4939403;28;20411;-65
2022/07/04 11:28:34;;;;;;;2.53;1.20;;;;;204.60;224519.00;;;;4935671;28;20286;-66
2022/07/04 11:31:38;;;;;;;3.03;1.00;;;;;204.60;224519.00;;;;4940818;28;20728;-66
2022/07/04 11:34:25;;;;;;;9.60;1.67;;;;;204.60;224519.00;;;;4936442;28;20292;-64
2022/07/04 11:37:11;;;;;;;3.13;1.43;;;;;204.60;224519.00;;;;4938825;28;20718;-65
2022/07/04 11:45:02;;;;;;;1.30;1.07;;;;;204.60;224519.00;;;;4939591;28;20280;-65
2022/07/04 11:46:13;;;;;;;2.33;1.20;;;;;204.60;224519.00;;;;4940888;28;20256;-65
2022/07/04 11:49:08;;;;;;;1.20;1.10;;;;;204.60;224519.00;;;;4932408;28;20228;-66
2022/07/04 11:51:55;;;;;;;8.73;2.60;;;;;204.60;224519.00;;;;4939582;28;20235;-67
2022/07/04 11:54:42;;;;;;;1.53;1.30;;;;;204.60;224519.00;;;;4936624;28;20912;-67
2022/07/04 11:57:40;;;;;;;1.17;1.10;;;;;204.60;224519.00;;;;4935713;28;20237;-66
2022/07/04 12:00:28;;;;;;;3.03;1.27;;;;;204.60;224519.00;;;;4940796;28;20232;-66
2022/07/04 12:03:16;;;;;;;1.33;1.10;;;;;204.60;224519.00;;;;4939760;28;20232;-66
2022/07/04 12:06:03;;;;;;;1.67;1.30;;;;;204.60;224519.00;;;;4940101;28;20342;-66
2022/07/04 12:08:50;;;;;;;1.40;1.30;;;;;204.60;224519.00;;;;4942468;28;20237;-66
2022/07/04 12:11:56;;;;;;;1.87;1.20;;;;;204.60;224519.00;;;;4935032;28;20900;-66
2022/07/04 12:14:58;;;;;;;3.00;1.10;;;;;204.60;224519.00;;;;4934179;28;20309;-65
2022/07/04 12:17:44;;;;;;;2.10;1.10;;;;;204.60;224519.00;;;;4933520;28;20284;-66
2022/07/04 12:20:32;;;;;;;1.57;1.20;;;;;204.60;224519.00;;;;4932301;28;20256;-65
2022/07/04 12:23:20;;;;;;;1.33;1.10;;;;;204.60;224519.00;;;;4933183;28;20289;-65
2022/07/04 12:26:09;;;;;;;1.73;1.10;;;;;204.60;224519.00;;;;4931810;28;20851;-67
2022/07/04 12:28:56;;;;;;;3.97;1.40;;;;;204.60;224519.00;;;;4932987;28;20336;-65
2022/07/04 12:31:44;;;;;;;3.20;1.33;;;;;204.60;224519.00;;;;4936531;28;20746;-65
2022/07/04 12:34:31;;;;;;;6.47;1.47;;;;;204.60;224519.00;;;;4935984;28;20740;-65
2022/07/04 12:37:18;;;;;;;1.53;1.20;;;;;204.60;224519.00;;;;4935140;28;20239;-66
2022/07/04 12:40:08;;;;;;;2.80;1.20;;;;;204.60;224519.00;;;;4933726;28;20790;-66
2022/07/04 12:42:55;;;;;;;1.37;1.20;;;;;204.60;224519.00;;;;4932111;28;20239;-66
2022/07/04 12:45:43;;;;;;;1.50;1.20;;;;;204.60;224519.00;;;;4932010;28;20248;-65
2022/07/04 12:48:30;;;;;;;1.53;1.40;;;;;204.60;224519.00;;;;4938255;28;20237;-65
2022/07/04 12:51:20;;;;;;;2.00;1.20;;;;;204.60;224519.00;;;;4936172;28;20244;-66
2022/07/04 12:54:11;;;;;;;3.90;1.43;;;;;204.60;224519.00;;;;4940894;28;20490;-65
2022/07/04 12:57:05;;;;;;;2.00;1.30;;;;;204.60;224519.00;;;;4930671;28;20247;-65
2022/07/04 12:59:51;;;;;;;2.60;1.20;;;;;204.60;224519.00;;;;4933072;28;20714;-64
2022/07/04 13:02:38;;;;;;;1.77;1.17;;;;;204.60;224519.00;;;;4939426;28;20232;-65
2022/07/04 13:05:24;;;;;;;1.37;1.27;;;;;204.60;224519.00;;;;4937923;28;20232;-64
2022/07/04 13:08:11;;;;;;;1.55;1.20;;;;;204.60;224519.00;;;;4934376;28;20231;-64
2022/07/04 13:14:02;;;;;;;2.03;1.33;;;;;204.60;224519.00;;;;4933835;28;20290;-66
2022/07/04 13:16:49;;;;;;;1.30;1.17;;;;;204.60;224519.00;;;;4938078;28;20398;-64
2022/07/04 13:19:35;;;;;;;1.25;1.15;;;;;204.60;224519.00;;;;4935285;28;20228;-64
2022/07/04 13:22:23;;;;;;;3.00;1.33;;;;;204.60;224519.00;;;;4941694;28;20360;-67
2022/07/04 13:25:09;;;;;;;4.03;1.75;;;;;204.60;224519.00;;;;4936399;28;20240;-66
2022/07/04 13:27:57;;;;;;;1.40;1.25;;;;;204.60;224519.00;;;;4942234;28;20241;-65
2022/07/04 13:30:43;;;;;;;2.28;1.35;;;;;204.60;224519.00;;;;4939943;28;20388;-63
2022/07/04 13:33:29;;;;;;;1.10;1.10;;;;;204.60;224519.00;;;;4940399;28;20232;-64
2022/07/04 13:36:18;;;;;;;1.60;1.08;;;;;204.60;224519.00;;;;4943551;28;20675;-63
2022/07/04 13:39:04;;;;;;;3.45;1.45;;;;;204.60;224519.00;;;;4940624;28;20260;-63
2022/07/04 13:41:52;;;;;;;2.97;1.33;;;;;204.60;224519.00;;;;4942386;28;20288;-61
2022/07/04 13:44:39;;;;;;;2.30;1.30;;;;;204.60;224519.00;;;;4942625;28;20267;-65
2022/07/04 13:47:26;;;;;;;2.90;1.25;;;;;204.60;224519.00;;;;4943033;28;20734;-62
2022/07/04 13:50:13;;;;;;;3.88;1.30;;;;;204.60;224519.00;;;;4947368;28;20236;-64
2022/07/04 13:52:59;;;;;;;1.58;1.20;;;;;204.60;224519.00;;;;4946245;28;20232;-61
2022/07/04 13:55:45;;;;;;;1.33;1.10;;;;;204.60;224519.00;;;;4945726;28;20804;-62
2022/07/04 13:58:33;;;;;;;1.45;1.20;;;;;204.60;224519.00;;;;4947355;28;20240;-63
2022/07/04 14:01:21;;;;;;;1.30;1.20;;;;;204.60;224519.00;;;;4937597;28;20376;-63
2022/07/04 14:04:07;;;;;;;1.88;1.10;;;;;204.60;224519.00;;;;4946240;28;20860;-64
2022/07/04 14:06:53;;;;;;;5.13;1.38;;;;;204.60;224519.00;;;;4944796;28;20236;-61